Time;durP1;ratioP1;P1;durP2;ratioP2;P2;SDS_P1;SDS_P2;PMS_P1;PMS_P2;Temp;Humidity;BMP_temperature;BMP_pressure;BME280_temperature;BME280_humidity;BME280_pressure;Samples;Min_cycle;Max_cycle;Signal;HPM_P1;HPM_P2
2024/02/22 00:00:32;;;;;;;5.10;3.20;;;;;;;12.37;71.33;97269.28;5189436;22;20571;-84
2024/02/22 00:02:37;;;;;;;9.20;4.20;;;;;;;12.38;71.61;97263.06;5162724;23;20572;-84
2024/02/22 00:04:40;;;;;;;4.50;2.73;;;;;;;12.41;70.87;97264.59;5163058;23;20583;-83
2024/02/22 00:06:45;;;;;;;5.70;2.50;;;;;;;12.44;70.76;97259.09;5160306;23;20714;-84
2024/02/22 00:08:48;;;;;;;5.40;3.07;;;;;;;12.46;71.66;97254.53;5137906;23;20584;-83
2024/02/22 00:10:51;;;;;;;4.37;2.47;;;;;;;12.47;69.68;97243.94;5136964;23;20580;-84
2024/02/22 00:29:15;;;;;;;3.30;1.90;;;;;;;12.60;68.71;97214.88;5189867;22;20552;-84
2024/02/22 00:31:18;;;;;;;2.63;1.60;;;;;;;12.58;70.63;97214.22;5138837;23;20956;-84
2024/02/22 00:33:36;;;;;;;3.93;1.80;;;;;;;12.55;71.46;97206.63;5162455;23;20961;-84
2024/02/22 00:35:43;;;;;;;3.80;1.80;;;;;;;12.51;71.17;97200.88;5136552;23;20750;-84
2024/02/22 00:37:47;;;;;;;4.17;1.90;;;;;;;12.57;70.36;97194.22;5163521;23;20623;-84
2024/02/22 00:39:50;;;;;;;2.83;1.53;;;;;;;12.58;71.38;97196.72;5163146;23;20646;-84
2024/02/22 00:41:53;;;;;;;3.83;1.90;;;;;;;12.59;71.29;97192.31;5163915;23;20990;-83
2024/02/22 00:44:00;;;;;;;3.87;1.80;;;;;;;12.59;71.97;97189.72;5138670;23;20586;-84
2024/02/22 00:46:05;;;;;;;4.27;1.90;;;;;;;12.56;72.60;97190.81;5136590;23;21215;-83
2024/02/22 00:48:08;;;;;;;3.23;1.80;;;;;;;12.60;72.88;97186.09;5136396;23;20585;-84
2024/02/22 00:50:11;;;;;;;3.40;1.80;;;;;;;12.58;71.21;97178.41;5136723;23;20600;-83
2024/02/22 00:52:16;;;;;;;4.33;1.80;;;;;;;12.59;74.39;97184.47;5189141;22;21099;-83
2024/02/22 00:54:18;;;;;;;3.27;1.97;;;;;;;12.59;73.94;97169.59;5188044;22;20593;-84
2024/02/22 00:59:21;;;;;;;3.50;1.63;;;;;;;12.59;74.68;97166.16;5162201;23;20600;-86
2024/02/22 01:01:26;;;;;;;3.83;1.63;;;;;;;12.58;72.23;97149.63;5189316;22;20590;-87
2024/02/22 01:03:31;;;;;;;4.13;2.20;;;;;;;12.52;74.33;97142.34;5137542;23;21113;-87
2024/02/22 01:05:33;;;;;;;3.20;2.00;;;;;;;12.53;74.24;97143.19;5162758;23;20602;-87
2024/02/22 01:19:56;;;;;;;3.03;1.73;;;;;;;11.88;78.56;97098.63;5187508;22;20544;-87
2024/02/22 01:22:00;;;;;;;5.23;2.00;;;;;;;11.73;81.43;97093.94;5188011;22;20603;-87
2024/02/22 01:24:03;;;;;;;4.13;2.30;;;;;;;11.67;80.42;97093.69;5188142;22;20571;-86
2024/02/22 01:26:06;;;;;;;3.10;1.70;;;;;;;11.62;80.39;97088.00;5161743;23;20588;-87
2024/02/22 01:28:12;;;;;;;5.83;1.80;;;;;;;11.62;80.82;97086.25;5162286;23;20572;-86
2024/02/22 01:30:16;;;;;;;3.07;2.10;;;;;;;11.67;79.04;97078.00;5136168;23;21112;-87
2024/02/22 01:32:19;;;;;;;2.60;1.90;;;;;;;11.69;79.59;97073.47;5187308;22;20611;-87
2024/02/22 01:34:23;;;;;;;2.40;1.60;;;;;;;11.65;80.78;97074.69;5161862;23;21382;-87
2024/02/22 01:36:27;;;;;;;2.90;1.93;;;;;;;11.66;79.87;97064.09;5160209;23;20581;-87
2024/02/22 01:38:30;;;;;;;3.50;2.10;;;;;;;11.64;80.89;97062.63;5161805;23;20580;-87
2024/02/22 01:40:33;;;;;;;4.53;2.00;;;;;;;11.64;80.98;97055.59;5160425;23;20580;-87
2024/02/22 01:42:36;;;;;;;3.30;1.80;;;;;;;11.65;78.82;97048.56;5161998;23;20726;-87
2024/02/22 01:44:39;;;;;;;3.63;1.70;;;;;;;11.65;79.83;97057.25;5137119;23;21153;-87
2024/02/22 01:46:42;;;;;;;3.60;1.60;;;;;;;11.62;79.65;97044.47;5160629;23;20619;-87
2024/02/22 01:48:46;;;;;;;2.73;1.70;;;;;;;11.63;79.59;97037.44;5136405;23;21620;-87
2024/02/22 01:50:53;;;;;;;3.07;1.90;;;;;;;11.65;80.78;97043.34;5161756;23;20568;-87
2024/02/22 01:52:56;;;;;;;2.37;1.70;;;;;;;11.61;81.41;97037.59;5162586;23;20565;-87
2024/02/22 01:55:00;;;;;;;2.80;1.97;;;;;;;11.60;80.46;97033.31;5136925;23;20581;-87
2024/02/22 01:57:03;;;;;;;3.30;1.83;;;;;;;11.58;81.44;97026.59;5134956;23;20667;-87
2024/02/22 01:59:06;;;;;;;2.53;1.60;;;;;;;11.61;81.56;97023.72;5187430;22;20572;-87
2024/02/22 02:01:10;;;;;;;3.87;2.07;;;;;;;11.63;80.66;97024.38;5161021;23;20578;-87
2024/02/22 02:03:13;;;;;;;3.30;2.20;;;;;;;11.64;81.18;97026.88;5137228;23;21214;-86
2024/02/22 02:05:16;;;;;;;2.17;1.50;;;;;;;11.65;81.77;97032.91;5188201;22;20958;-87
2024/02/22 02:07:19;;;;;;;3.47;1.70;;;;;;;11.60;80.95;97017.66;5159974;23;20987;-86
2024/02/22 02:09:24;;;;;;;3.40;1.80;;;;;;;11.63;81.88;97019.16;5188326;22;20590;-87
2024/02/22 02:11:27;;;;;;;2.80;1.80;;;;;;;11.62;81.11;97005.28;5160220;23;20582;-87
2024/02/22 02:13:30;;;;;;;3.13;1.83;;;;;;;11.62;83.04;97007.06;5161173;23;20905;-87
2024/02/22 02:15:33;;;;;;;6.63;3.37;;;;;;;11.52;83.45;97007.06;5158524;23;21208;-86
2024/02/22 02:17:37;;;;;;;4.00;2.20;;;;;;;11.49;82.81;97001.31;5160442;23;20576;-87
2024/02/22 02:19:42;;;;;;;2.60;1.67;;;;;;;11.51;83.53;96999.38;5136334;23;20581;-86
2024/02/22 02:21:50;;;;;;;7.27;1.97;;;;;;;11.57;84.93;96997.03;5162151;23;20643;-88
2024/02/22 02:24:11;;;;;;;2.40;1.67;;;;;;;11.46;85.51;96985.88;5162021;23;20908;-87
2024/02/22 02:26:15;;;;;;;2.70;1.80;;;;;;;11.44;87.17;96987.78;5135845;23;20652;-86
2024/02/22 02:28:19;;;;;;;2.83;1.93;;;;;;;11.42;88.93;96990.53;5163383;23;20576;-87
2024/02/22 02:30:22;;;;;;;2.50;1.80;;;;;;;11.36;89.01;96990.25;5136033;23;20676;-87
2024/02/22 02:32:25;;;;;;;3.00;1.77;;;;;;;11.36;89.26;96982.44;5190266;22;20571;-87
2024/02/22 02:34:28;;;;;;;3.23;1.80;;;;;;;11.32;89.12;96983.66;5188439;22;20968;-86
2024/02/22 02:36:31;;;;;;;2.80;1.77;;;;;;;11.30;90.97;96981.16;5162883;23;21331;-87
2024/02/22 02:38:35;;;;;;;2.97;1.70;;;;;;;11.31;90.72;96976.81;5137845;23;20609;-87
2024/02/22 02:40:39;;;;;;;3.10;1.80;;;;;;;11.29;91.18;96976.13;5162223;23;20658;-87
2024/02/22 02:42:44;;;;;;;2.20;1.57;;;;;;;11.27;91.11;96971.03;5163951;23;20596;-87
2024/02/22 02:44:49;;;;;;;3.40;1.50;;;;;;;11.26;91.33;96967.72;5163305;23;20627;-88
2024/02/22 02:46:52;;;;;;;3.90;1.80;;;;;;;11.28;90.57;96964.84;5163214;23;20662;-89
2024/02/22 02:48:56;;;;;;;3.40;1.33;;;;;;;11.25;90.32;96951.25;5136469;23;20633;-89
2024/02/22 02:50:59;;;;;;;2.10;1.40;;;;;;;11.23;92.08;96966.22;5189996;22;20560;-87
2024/02/22 02:53:03;;;;;;;2.53;1.60;;;;;;;11.18;92.14;96965.78;5161282;23;20559;-86
2024/02/22 02:55:07;;;;;;;3.13;1.80;;;;;;;11.11;92.53;96959.47;5138424;23;20581;-87
2024/02/22 02:57:09;;;;;;;2.37;1.47;;;;;;;11.06;91.16;96956.44;5161818;23;20569;-86
2024/02/22 02:59:14;;;;;;;2.27;1.60;;;;;;;11.13;91.09;96952.34;5138292;23;20573;-87
2024/02/22 03:01:17;;;;;;;2.90;1.50;;;;;;;11.05;90.71;96946.97;5137126;23;20583;-87
2024/02/22 03:03:20;;;;;;;2.40;1.40;;;;;;;11.07;92.24;96944.22;5162688;23;20596;-86
2024/02/22 03:05:23;;;;;;;3.00;1.30;;;;;;;11.05;93.52;96943.53;5163117;23;20656;-87
2024/02/22 03:07:27;;;;;;;2.30;1.37;;;;;;;11.01;92.25;96945.59;5161673;23;20608;-86
2024/02/22 03:09:31;;;;;;;2.00;1.30;;;;;;;11.06;92.11;96942.56;5163615;23;20579;-86
2024/02/22 03:11:34;;;;;;;2.90;1.40;;;;;;;11.05;92.96;96944.38;5162353;23;20572;-86
2024/02/22 03:13:37;;;;;;;2.40;1.20;;;;;;;11.06;92.35;96932.94;5137533;23;20627;-87
2024/02/22 03:15:42;;;;;;;2.77;1.30;;;;;;;10.99;93.27;96933.63;5188839;22;21140;-86
2024/02/22 03:17:45;;;;;;;1.90;1.30;;;;;;;11.03;93.62;96935.00;5161664;23;21129;-84
2024/02/22 03:19:49;;;;;;;1.80;1.20;;;;;;;11.04;93.35;96937.50;5138431;23;20612;-84
2024/02/22 03:21:52;;;;;;;3.23;1.30;;;;;;;11.08;94.38;96931.06;5189397;22;21110;-83
2024/02/22 03:23:55;;;;;;;3.47;1.40;;;;;;;11.09;92.96;96924.84;5188530;22;20891;-83
2024/02/22 03:25:59;;;;;;;2.50;1.10;;;;;;;10.97;92.78;96918.09;5162054;23;20587;-83
2024/02/22 03:28:03;;;;;;;2.97;1.40;;;;;;;11.01;94.42;96916.88;5134457;23;20603;-83
2024/02/22 03:30:09;;;;;;;2.90;1.20;;;;;;;11.02;93.98;96913.34;5136519;23;20572;-84
2024/02/22 03:32:14;;;;;;;1.83;1.00;;;;;;;11.03;95.00;96907.13;5160675;23;21206;-83
2024/02/22 03:34:18;;;;;;;2.60;1.17;;;;;;;11.03;94.56;96904.53;5162962;23;20631;-83
2024/02/22 03:36:21;;;;;;;1.67;0.90;;;;;;;11.01;94.91;96896.03;5162534;23;21037;-84
2024/02/22 03:38:25;;;;;;;2.00;1.10;;;;;;;10.99;95.91;96902.31;5161281;23;20575;-83
2024/02/22 03:40:27;;;;;;;1.83;1.20;;;;;;;10.99;95.27;96894.50;5162540;23;20583;-84
2024/02/22 03:42:31;;;;;;;3.10;1.00;;;;;;;11.00;94.71;96896.16;5137450;23;20573;-83
2024/02/22 03:44:34;;;;;;;2.67;1.10;;;;;;;11.07;94.47;96889.44;5137430;23;21100;-83
2024/02/22 03:46:37;;;;;;;3.33;1.10;;;;;;;11.07;95.24;96895.47;5136314;23;20578;-83
2024/02/22 03:48:42;;;;;;;2.60;1.27;;;;;;;11.03;96.20;96888.88;5162223;23;20563;-83
2024/02/22 03:50:45;;;;;;;2.00;1.00;;;;;;;11.03;95.65;96883.66;5162325;23;20580;-84
2024/02/22 03:52:49;;;;;;;2.73;0.90;;;;;;;11.04;96.11;96887.09;5137495;23;20583;-83
2024/02/22 03:54:52;;;;;;;2.00;1.10;;;;;;;11.01;96.06;96874.34;5162727;23;20576;-83
2024/02/22 03:56:55;;;;;;;2.00;1.20;;;;;;;10.97;95.66;96865.94;5136176;23;20569;-83
2024/02/22 03:58:59;;;;;;;1.90;1.10;;;;;;;10.99;95.90;96871.00;5161786;23;20611;-84
2024/02/22 04:01:02;;;;;;;2.73;1.20;;;;;;;10.98;95.88;96864.97;5162800;23;20572;-84
2024/02/22 04:03:05;;;;;;;1.90;1.00;;;;;;;10.96;96.59;96868.69;5137394;23;20614;-83
2024/02/22 04:05:10;;;;;;;2.40;1.27;;;;;;;10.96;96.36;96866.91;5162686;23;20580;-84
2024/02/22 04:07:13;;;;;;;2.20;0.97;;;;;;;10.94;95.31;96861.00;5162065;23;20582;-85
2024/02/22 04:09:16;;;;;;;2.27;1.10;;;;;;;10.92;95.74;96855.09;5163311;23;20606;-83
2024/02/22 04:11:20;;;;;;;2.30;1.30;;;;;;;10.92;97.11;96864.72;5160722;23;20655;-84
2024/02/22 04:13:24;;;;;;;4.20;1.37;;;;;;;10.96;97.74;96866.91;5162142;22;20573;-83
2024/02/22 04:15:27;;;;;;;2.60;1.30;;;;;;;10.93;97.45;96861.13;5136475;23;20627;-83
2024/02/22 04:17:30;;;;;;;2.90;1.30;;;;;;;10.96;96.93;96860.84;5137384;23;20617;-84
2024/02/22 04:19:33;;;;;;;2.00;1.30;;;;;;;10.96;97.73;96855.63;5137400;23;20580;-84
2024/02/22 04:21:41;;;;;;;2.83;1.13;;;;;;;10.96;98.05;96860.84;5161557;23;20626;-84
2024/02/22 04:23:45;;;;;;;2.77;1.30;;;;;;;10.92;98.87;96859.50;5162278;23;20604;-83
2024/02/22 04:25:48;;;;;;;1.90;1.00;;;;;;;10.97;97.55;96846.88;5135291;23;20616;-84
2024/02/22 04:27:51;;;;;;;3.00;1.20;;;;;;;10.94;97.84;96842.72;5135568;23;20580;-87
2024/02/22 04:29:54;;;;;;;2.50;1.47;;;;;;;10.94;98.21;96845.34;5136154;23;20581;-87
2024/02/22 04:31:58;;;;;;;2.50;1.40;;;;;;;10.93;99.48;96843.72;5136490;23;21129;-87
2024/02/22 04:34:01;;;;;;;3.27;1.60;;;;;;;10.95;99.29;96844.38;5136482;23;20934;-86
2024/02/22 04:36:03;;;;;;;1.97;1.10;;;;;;;10.88;99.59;96845.06;5160558;23;20612;-86
2024/02/22 04:38:08;;;;;;;2.30;1.23;;;;;;;10.84;99.38;96846.34;5136716;23;20588;-86
2024/02/22 04:40:12;;;;;;;2.67;1.30;;;;;;;10.84;99.85;96836.72;5173110;22;21041;-86
2024/02/22 04:42:16;;;;;;;1.97;1.20;;;;;;;10.85;98.98;96827.09;5162977;23;20620;-87
2024/02/22 04:44:20;;;;;;;2.70;1.13;;;;;;;10.80;99.81;96819.69;5136397;23;20616;-87
2024/02/22 04:46:24;;;;;;;3.13;1.60;;;;;;;10.78;100.00;96830.38;5134714;23;20574;-86
2024/02/22 04:48:27;;;;;;;2.00;1.30;;;;;;;10.82;99.80;96825.59;5188508;22;20575;-86
2024/02/22 04:50:30;;;;;;;2.33;1.07;;;;;;;10.86;99.65;96829.56;5136604;23;20600;-86
2024/02/22 04:52:34;;;;;;;1.77;1.23;;;;;;;10.84;100.00;96831.50;5136997;23;21364;-87
2024/02/22 04:54:39;;;;;;;2.10;1.23;;;;;;;10.85;99.66;96819.28;5162111;23;21032;-87
2024/02/22 04:56:47;;;;;;;3.33;1.60;;;;;;;10.82;100.00;96812.56;5161261;23;20642;-87
2024/02/22 04:58:50;;;;;;;1.80;1.37;;;;;;;10.85;100.00;96816.66;5162346;23;20607;-87
2024/02/22 05:00:53;;;;;;;2.10;1.13;;;;;;;10.88;100.00;96821.59;5189399;22;20626;-87
2024/02/22 05:02:56;;;;;;;3.40;1.53;;;;;;;10.86;100.00;96813.91;5161987;23;20692;-87
2024/02/22 05:04:59;;;;;;;2.17;1.30;;;;;;;10.91;100.00;96814.31;5136180;23;20609;-86
2024/02/22 05:07:02;;;;;;;2.03;1.17;;;;;;;10.91;100.00;96806.50;5135327;23;21147;-87
2024/02/22 05:09:05;;;;;;;3.63;1.37;;;;;;;10.94;100.00;96811.44;5187780;22;20581;-87
2024/02/22 05:11:10;;;;;;;2.10;1.23;;;;;;;10.96;100.00;96808.69;5135365;23;20608;-87
2024/02/22 05:13:13;;;;;;;2.33;1.10;;;;;;;10.89;99.97;96803.22;5161859;23;20588;-87
2024/02/22 05:15:17;;;;;;;3.20;1.40;;;;;;;10.89;100.00;96795.38;5187437;22;20575;-87
2024/02/22 05:17:21;;;;;;;1.70;1.03;;;;;;;10.93;100.00;96794.16;5134969;23;20924;-88
2024/02/22 05:19:24;;;;;;;1.70;0.93;;;;;;;10.93;100.00;96801.13;5161185;23;20566;-89
2024/02/22 05:21:28;;;;;;;3.87;1.30;;;;;;;10.92;100.00;96792.50;5135960;23;20600;-89
2024/02/22 05:23:31;;;;;;;2.10;1.10;;;;;;;10.89;100.00;96803.22;5137860;23;20574;-89
2024/02/22 05:25:33;;;;;;;2.60;1.37;;;;;;;10.91;100.00;96788.22;5160784;23;20568;-89
2024/02/22 05:27:38;;;;;;;2.40;1.10;;;;;;;10.83;100.00;96782.88;5161986;23;20592;-90
2024/02/22 05:29:43;;;;;;;2.60;1.07;;;;;;;10.89;100.00;96781.53;5138121;23;20566;-90
2024/02/22 05:31:46;;;;;;;3.10;1.20;;;;;;;10.93;100.00;96768.06;5137248;23;21158;-89
2024/02/22 05:33:49;;;;;;;2.17;1.00;;;;;;;10.90;100.00;96763.13;5135106;23;20672;-90
2024/02/22 05:35:52;;;;;;;2.40;1.17;;;;;;;10.79;100.00;96756.41;5163016;23;20582;-90
2024/02/22 05:37:55;;;;;;;1.90;1.10;;;;;;;10.80;100.00;96755.47;5160696;23;20608;-84
2024/02/22 05:39:58;;;;;;;3.23;1.37;;;;;;;10.78;100.00;96762.59;5130352;23;20597;-84
2024/02/22 05:42:02;;;;;;;3.33;2.00;;;;;;;10.77;100.00;96748.72;5189048;22;20912;-84
2024/02/22 05:44:06;;;;;;;1.80;1.10;;;;;;;10.81;100.00;96745.72;5160415;23;20607;-84
2024/02/22 05:46:10;;;;;;;3.00;1.20;;;;;;;10.81;100.00;96737.88;5135949;23;20669;-84
2024/02/22 05:48:13;;;;;;;2.83;1.23;;;;;;;10.81;100.00;96745.72;5161100;23;20686;-84
2024/02/22 05:50:17;;;;;;;1.63;1.03;;;;;;;10.76;100.00;96754.09;5189086;22;20575;-84
2024/02/22 05:52:20;;;;;;;2.30;1.30;;;;;;;10.79;100.00;96744.19;5136562;23;20573;-84
2024/02/22 05:54:24;;;;;;;2.20;1.40;;;;;;;10.83;100.00;96743.78;5184908;22;20886;-84
2024/02/22 05:56:28;;;;;;;2.40;1.30;;;;;;;10.81;100.00;96740.50;5133994;23;20592;-84
2024/02/22 05:58:30;;;;;;;4.10;1.47;;;;;;;10.73;100.00;96751.75;5137136;23;20565;-83
2024/02/22 06:00:36;;;;;;;2.33;1.20;;;;;;;10.74;100.00;96743.78;5160972;23;20612;-84
2024/02/22 06:02:40;;;;;;;1.87;1.20;;;;;;;10.77;100.00;96742.69;5137585;23;20573;-83
2024/02/22 06:04:43;;;;;;;2.20;1.10;;;;;;;10.73;100.00;96733.50;5162283;23;21640;-83
2024/02/22 06:06:47;;;;;;;1.93;1.20;;;;;;;10.78;100.00;96731.28;5161820;23;20619;-84
2024/02/22 06:08:51;;;;;;;5.13;1.30;;;;;;;10.79;100.00;96725.94;5138035;23;20619;-83
2024/02/22 06:10:54;;;;;;;2.70;1.50;;;;;;;10.84;100.00;96723.75;5137428;23;20576;-83
2024/02/22 06:12:57;;;;;;;1.90;1.17;;;;;;;10.82;100.00;96728.25;5137647;23;20608;-85
2024/02/22 06:15:00;;;;;;;2.90;1.57;;;;;;;10.82;100.00;96723.91;5165105;23;20576;-82
2024/02/22 06:17:05;;;;;;;2.10;1.10;;;;;;;10.83;100.00;96722.91;5162363;23;20582;-82
2024/02/22 06:19:10;;;;;;;4.03;1.40;;;;;;;10.85;100.00;96721.00;5189299;22;20578;-81
2024/02/22 06:21:13;;;;;;;2.80;2.17;;;;;;;10.92;100.00;96716.84;5161620;23;20695;-81
2024/02/22 06:23:17;;;;;;;8.70;4.40;;;;;;;10.96;100.00;96714.78;5188456;22;20579;-81
2024/02/22 06:25:20;;;;;;;2.20;1.30;;;;;;;11.01;100.00;96723.03;5161241;23;21131;-82
2024/02/22 06:27:23;;;;;;;1.97;1.20;;;;;;;11.04;100.00;96714.91;5161430;23;20556;-82
2024/02/22 06:29:26;;;;;;;2.97;1.30;;;;;;;11.07;100.00;96718.06;5162416;23;20557;-82
2024/02/22 06:31:29;;;;;;;2.10;1.30;;;;;;;11.10;100.00;96709.94;5162113;23;21241;-82
2024/02/22 06:33:34;;;;;;;2.93;1.23;;;;;;;11.07;100.00;96707.63;5137559;23;20909;-82
2024/02/22 06:35:37;;;;;;;2.13;1.30;;;;;;;11.03;100.00;96716.69;5162451;23;20568;-82
2024/02/22 06:37:41;;;;;;;1.97;1.13;;;;;;;11.03;100.00;96713.25;5162377;23;20572;-83
2024/02/22 06:39:44;;;;;;;2.27;1.20;;;;;;;11.04;100.00;96709.69;5162598;23;20659;-83
2024/02/22 06:41:48;;;;;;;2.10;1.20;;;;;;;11.03;100.00;96702.84;5162921;23;20568;-82
2024/02/22 06:43:51;;;;;;;2.63;1.10;;;;;;;11.03;100.00;96703.63;5189166;22;20628;-83
2024/02/22 06:45:53;;;;;;;2.67;1.37;;;;;;;11.02;100.00;96707.22;5135694;23;20675;-83
2024/02/22 06:47:56;;;;;;;3.10;1.50;;;;;;;10.99;100.00;96704.91;5161237;23;20568;-83
2024/02/22 06:50:03;;;;;;;3.20;1.40;;;;;;;10.91;100.00;96696.94;5188818;22;20543;-82
2024/02/22 06:52:07;;;;;;;2.73;1.57;;;;;;;10.88;100.00;96699.88;5160998;23;21395;-82
2024/02/22 06:54:12;;;;;;;2.10;1.20;;;;;;;10.87;100.00;96692.19;5137105;23;20959;-82
2024/02/22 06:56:16;;;;;;;2.10;1.13;;;;;;;10.87;100.00;96694.78;5188810;22;20936;-83
2024/02/22 06:58:20;;;;;;;3.80;1.10;;;;;;;10.87;100.00;96693.00;5137343;23;20592;-82
2024/02/22 07:00:23;;;;;;;2.00;1.10;;;;;;;10.90;100.00;96694.50;5188388;22;20648;-82
2024/02/22 07:02:26;;;;;;;1.80;1.10;;;;;;;10.91;100.00;96683.91;5163085;23;20664;-82
2024/02/22 07:04:30;;;;;;;1.80;1.07;;;;;;;10.92;100.00;96692.56;5162345;23;20564;-83
2024/02/22 07:06:35;;;;;;;1.70;1.10;;;;;;;10.87;100.00;96690.38;5161098;23;20983;-82
2024/02/22 07:08:38;;;;;;;2.57;1.30;;;;;;;10.88;100.00;96689.44;5138043;23;20577;-82
2024/02/22 07:10:41;;;;;;;1.73;1.00;;;;;;;10.90;100.00;96671.84;5191498;22;20610;-82
2024/02/22 07:12:44;;;;;;;2.00;1.10;;;;;;;10.93;100.00;96679.38;5163888;23;20583;-82
2024/02/22 07:14:47;;;;;;;1.50;0.87;;;;;;;10.96;100.00;96673.88;5189940;22;21050;-82
2024/02/22 07:16:51;;;;;;;1.80;1.00;;;;;;;10.94;100.00;96681.00;5163196;23;20674;-82
2024/02/22 07:18:54;;;;;;;1.90;1.50;;;;;;;10.99;100.00;96681.44;5163721;23;20695;-82
2024/02/22 07:20:58;;;;;;;1.80;0.90;;;;;;;11.02;100.00;96675.94;5162704;23;20592;-82
2024/02/22 07:23:03;;;;;;;5.63;2.60;;;;;;;11.02;100.00;96675.94;5137289;23;21193;-82
2024/02/22 07:25:10;;;;;;;3.00;1.90;;;;;;;11.02;100.00;96680.31;5163042;23;20608;-83
2024/02/22 07:27:13;;;;;;;2.83;1.00;;;;;;;11.02;100.00;96675.94;5189371;22;20587;-82
2024/02/22 07:29:17;;;;;;;2.47;1.10;;;;;;;11.05;100.00;96678.25;5163627;23;20651;-83
2024/02/22 07:31:20;;;;;;;1.83;0.93;;;;;;;11.03;100.00;96680.16;5162970;23;21121;-82
2024/02/22 07:33:23;;;;;;;5.57;1.30;;;;;;;10.99;100.00;96670.16;5190543;22;21001;-82
2024/02/22 07:35:27;;;;;;;3.50;1.10;;;;;;;10.98;100.00;96679.78;5138030;23;20585;-82
2024/02/22 07:37:30;;;;;;;2.47;1.00;;;;;;;10.99;100.00;96678.81;5162601;23;21200;-82
2024/02/22 07:39:34;;;;;;;1.83;1.00;;;;;;;10.99;100.00;96673.59;5163240;23;20626;-82
2024/02/22 07:41:37;;;;;;;3.27;1.10;;;;;;;10.95;100.00;96669.63;5163050;23;21349;-82
2024/02/22 07:43:41;;;;;;;2.07;1.33;;;;;;;10.98;100.00;96666.72;5163668;23;20571;-83
2024/02/22 07:45:44;;;;;;;2.43;1.33;;;;;;;10.98;100.00;96656.28;5163603;23;20600;-82
2024/02/22 07:47:49;;;;;;;2.53;1.40;;;;;;;11.00;100.00;96664.78;5162911;23;20611;-82
2024/02/22 07:49:52;;;;;;;2.00;1.10;;;;;;;11.05;100.00;96666.97;5138915;23;20588;-82
2024/02/22 07:51:55;;;;;;;2.10;1.20;;;;;;;11.05;100.00;96659.16;5163433;23;20579;-82
2024/02/22 07:54:01;;;;;;;2.80;1.30;;;;;;;11.04;100.00;96660.13;5191112;22;20572;-82
2024/02/22 07:56:08;;;;;;;3.03;1.50;;;;;;;11.10;100.00;96651.75;5163395;23;21134;-82
2024/02/22 07:58:11;;;;;;;2.63;1.33;;;;;;;11.05;100.00;96654.78;5138424;23;20611;-82
2024/02/22 08:00:17;;;;;;;3.40;1.50;;;;;;;11.07;100.00;96645.00;5163994;23;20587;-82
2024/02/22 08:02:20;;;;;;;2.13;1.30;;;;;;;11.07;100.00;96655.44;5190335;22;20563;-83
2024/02/22 08:04:26;;;;;;;2.53;1.27;;;;;;;11.09;100.00;96643.06;5163675;23;20583;-82
2024/02/22 08:06:30;;;;;;;2.33;1.13;;;;;;;11.11;100.00;96645.53;5162044;23;21183;-83
2024/02/22 08:08:33;;;;;;;2.03;1.00;;;;;;;11.08;100.00;96646.66;5190361;22;20598;-83
2024/02/22 08:10:37;;;;;;;2.20;1.13;;;;;;;11.11;100.00;96635.94;5138482;23;20580;-83
2024/02/22 08:12:42;;;;;;;2.50;1.50;;;;;;;11.12;100.00;96640.19;5162807;23;20576;-82
2024/02/22 08:14:45;;;;;;;3.70;1.53;;;;;;;11.09;100.00;96631.81;5163197;23;20619;-83
2024/02/22 08:16:50;;;;;;;3.20;1.30;;;;;;;11.10;100.00;96633.47;5135727;23;21168;-83
2024/02/22 08:18:53;;;;;;;2.47;1.30;;;;;;;11.14;100.00;96634.81;5161986;23;20584;-82
2024/02/22 08:20:56;;;;;;;3.03;1.23;;;;;;;11.09;100.00;96629.22;5163019;23;20587;-82
2024/02/22 08:23:02;;;;;;;1.57;0.83;;;;;;;11.13;100.00;96628.78;5163840;23;20576;-83
2024/02/22 08:25:06;;;;;;;2.00;1.03;;;;;;;11.14;100.00;96624.38;5163807;23;20615;-82
2024/02/22 08:27:10;;;;;;;2.27;1.13;;;;;;;11.09;100.00;96619.59;5162362;23;20592;-82
2024/02/22 08:29:14;;;;;;;1.83;0.97;;;;;;;11.08;100.00;96619.72;5164012;23;20576;-82
2024/02/22 08:31:24;;;;;;;2.27;1.10;;;;;;;11.05;100.00;96620.03;5190089;22;20618;-83
2024/02/22 08:33:29;;;;;;;2.10;1.00;;;;;;;11.04;100.00;96618.41;5190465;22;20691;-82
2024/02/22 08:35:33;;;;;;;4.53;0.90;;;;;;;11.06;100.00;96604.22;5137465;23;20573;-82
2024/02/22 08:37:36;;;;;;;3.13;1.10;;;;;;;11.02;100.00;96608.09;5135905;23;20581;-82
2024/02/22 08:39:38;;;;;;;2.23;0.93;;;;;;;11.06;100.00;96606.03;5188995;22;21075;-83
2024/02/22 08:41:42;;;;;;;2.57;0.90;;;;;;;11.13;100.00;96614.94;5190089;22;20587;-82
2024/02/22 08:43:45;;;;;;;1.73;0.90;;;;;;;11.12;100.00;96600.22;5161444;23;20618;-82
2024/02/22 08:45:50;;;;;;;1.50;0.80;;;;;;;11.16;100.00;96605.00;5162109;23;20616;-83
2024/02/22 08:47:53;;;;;;;1.90;0.77;;;;;;;11.14;100.00;96601.75;5137345;23;21190;-83
2024/02/22 08:49:58;;;;;;;1.57;0.70;;;;;;;11.11;100.00;96588.13;5163067;23;20600;-82
2024/02/22 08:52:04;;;;;;;1.70;0.67;;;;;;;11.16;100.00;96597.19;5136530;23;20593;-82
2024/02/22 08:54:07;;;;;;;1.87;0.70;;;;;;;11.20;100.00;96592.50;5162632;23;20580;-82
2024/02/22 08:56:11;;;;;;;1.60;0.70;;;;;;;11.19;100.00;96596.09;5162054;23;20946;-83
2024/02/22 08:58:14;;;;;;;1.40;0.63;;;;;;;11.19;100.00;96602.13;5160059;23;20576;-83
2024/02/22 09:00:19;;;;;;;1.43;0.70;;;;;;;11.13;100.00;96596.66;5164033;23;20580;-82
2024/02/22 09:02:24;;;;;;;1.60;0.77;;;;;;;11.13;100.00;96599.28;5162428;23;20607;-83
2024/02/22 09:04:27;;;;;;;2.03;0.73;;;;;;;11.15;100.00;96592.13;5162336;23;20581;-82
2024/02/22 09:06:31;;;;;;;1.60;0.80;;;;;;;11.20;100.00;96584.66;5185751;22;20618;-83
2024/02/22 09:08:36;;;;;;;2.20;1.13;;;;;;;11.21;100.00;96588.94;5161681;23;20650;-82
2024/02/22 09:10:40;;;;;;;3.80;2.43;;;;;;;11.18;100.00;96584.81;5163954;23;20572;-82
2024/02/22 09:12:44;;;;;;;1.20;0.50;;;;;;;11.18;100.00;96578.78;5138029;23;20589;-85
2024/02/22 09:14:48;;;;;;;2.00;0.60;;;;;;;11.26;100.00;96584.94;5136409;23;20573;-84
2024/02/22 09:16:52;;;;;;;1.20;0.60;;;;;;;11.30;100.00;96583.66;5136519;23;21374;-84
2024/02/22 09:18:57;;;;;;;1.40;0.60;;;;;;;11.33;100.00;96573.72;5137052;23;20589;-84
2024/02/22 09:21:01;;;;;;;1.60;0.70;;;;;;;11.36;100.00;96570.00;5162916;23;20658;-86
2024/02/22 09:23:04;;;;;;;2.67;0.60;;;;;;;11.40;100.00;96574.78;5189222;22;20585;-86
2024/02/22 09:25:08;;;;;;;1.30;0.60;;;;;;;11.40;100.00;96573.97;5163425;23;21129;-86
2024/02/22 09:27:12;;;;;;;1.50;0.63;;;;;;;11.38;100.00;96565.47;5162122;23;20948;-87
2024/02/22 09:29:16;;;;;;;2.20;0.50;;;;;;;11.41;100.00;96557.34;5137313;23;20623;-86
2024/02/22 09:31:19;;;;;;;1.40;0.60;;;;;;;11.41;100.00;96565.16;5188977;22;20601;-86
2024/02/22 09:33:23;;;;;;;1.57;0.60;;;;;;;11.38;100.00;96547.19;5163535;23;20963;-86
2024/02/22 09:35:27;;;;;;;1.30;0.60;;;;;;;11.43;100.00;96543.19;5138133;23;20644;-86
2024/02/22 09:37:30;;;;;;;1.40;0.50;;;;;;;11.45;100.00;96540.41;5162061;23;21192;-85
2024/02/22 09:39:35;;;;;;;1.20;0.50;;;;;;;11.48;100.00;96546.19;5137951;23;20624;-85
2024/02/22 09:41:38;;;;;;;1.70;0.60;;;;;;;11.45;100.00;96532.59;5163185;23;20660;-85
2024/02/22 09:43:42;;;;;;;1.53;0.53;;;;;;;11.45;100.00;96541.22;5138273;23;20589;-85
2024/02/22 09:45:46;;;;;;;1.40;0.70;;;;;;;11.47;100.00;96534.13;5162991;23;20646;-86
2024/02/22 09:47:50;;;;;;;1.40;0.53;;;;;;;11.56;100.00;96537.63;5162217;23;20604;-86
2024/02/22 09:49:55;;;;;;;1.50;0.70;;;;;;;11.60;100.00;96539.78;5161295;23;20610;-86
2024/02/22 09:52:00;;;;;;;1.93;0.70;;;;;;;11.62;100.00;96532.63;5188645;22;20607;-85
2024/02/22 09:54:02;;;;;;;2.00;0.60;;;;;;;11.59;100.00;96540.78;5136822;23;20597;-86
2024/02/22 09:56:09;;;;;;;1.53;0.50;;;;;;;11.54;100.00;96524.72;5137393;23;20893;-86
2024/02/22 09:58:14;;;;;;;1.43;0.50;;;;;;;11.53;100.00;96540.53;5186219;22;20729;-86
2024/02/22 10:00:18;;;;;;;1.40;0.57;;;;;;;11.57;100.00;96534.03;5162864;23;20587;-85
2024/02/22 10:02:23;;;;;;;1.70;0.50;;;;;;;11.60;100.00;96528.53;5162682;23;20553;-91
2024/02/22 10:04:27;;;;;;;1.50;0.60;;;;;;;11.55;100.00;96517.72;5190371;22;20575;-88
2024/02/22 10:06:30;;;;;;;1.33;0.53;;;;;;;11.60;100.00;96512.84;5161489;23;20627;-86
2024/02/22 10:08:35;;;;;;;1.60;0.50;;;;;;;11.61;100.00;96504.06;5137477;23;20605;-84
2024/02/22 10:10:40;;;;;;;1.40;0.50;;;;;;;11.62;100.00;96505.69;5162649;23;20553;-83